createdAt,value
2022-12-24T00:01:34.005Z,68.77
2022-12-24T00:04:00.902Z,68.99
2022-12-24T00:06:27.395Z,68.79
2022-12-24T00:08:53.945Z,70.19
2022-12-24T00:11:20.962Z,69.44
2022-12-24T00:13:47.637Z,70.01
2022-12-24T00:16:14.655Z,70.06
2022-12-24T00:18:45.956Z,71.35
2022-12-24T00:21:13.641Z,69.31
2022-12-24T00:23:40.587Z,70.30
2022-12-24T00:26:07.152Z,71.24
2022-12-24T00:28:33.807Z,70.67
2022-12-24T00:31:00.396Z,70.92
2022-12-24T00:33:26.868Z,70.42
2022-12-24T00:35:53.692Z,70.11
2022-12-24T00:38:20.493Z,71.04
2022-12-24T00:40:46.950Z,70.61
2022-12-24T00:43:13.564Z,70.41
2022-12-24T00:45:39.958Z,70.39
2022-12-24T00:48:06.700Z,69.77
2022-12-24T00:50:33.357Z,70.50
2022-12-24T00:53:00.017Z,70.47
2022-12-24T00:55:26.465Z,70.66
2022-12-24T00:57:52.865Z,70.12
2022-12-24T01:00:19.737Z,70.52
2022-12-24T01:02:46.519Z,70.09
2022-12-24T01:05:13.320Z,70.52
2022-12-24T01:07:44.651Z,71.40
2022-12-24T01:10:13.604Z,70.90
2022-12-24T01:12:40.928Z,71.66
2022-12-24T01:15:08.670Z,70.43
2022-12-24T01:17:35.740Z,70.30
2022-12-24T01:20:03.587Z,70.01
2022-12-24T01:22:30.142Z,69.58
2022-12-24T01:24:56.617Z,68.63
2022-12-24T01:27:23.373Z,69.33
2022-12-24T01:29:49.803Z,68.54
2022-12-24T01:32:16.577Z,69.08
2022-12-24T01:34:43.111Z,69.32
2022-12-24T01:37:09.625Z,69.88
2022-12-24T01:39:36.113Z,69.34
2022-12-24T01:42:21.226Z,70.86
2022-12-24T01:44:51.286Z,70.78
2022-12-24T01:47:25.735Z,71.11
2022-12-24T01:49:57.262Z,70.54
2022-12-24T01:52:30.443Z,70.24
2022-12-24T01:55:03.736Z,70.75
2022-12-24T01:57:34.649Z,69.44
2022-12-24T02:00:05.277Z,69.60
2022-12-24T02:02:33.445Z,68.47
2022-12-24T02:05:10.807Z,68.19
2022-12-24T02:07:37.598Z,67.75
2022-12-24T02:10:05.373Z,67.53
2022-12-24T02:12:36.104Z,67.91
2022-12-24T02:15:03.529Z,66.55
2022-12-24T02:18:06.627Z,67.11
2022-12-24T02:20:58.365Z,66.19
2022-12-24T02:24:03.550Z,66.84
2022-12-24T02:26:54.004Z,67.36
2022-12-24T02:29:36.727Z,68.83
2022-12-24T02:32:13.413Z,68.29
2022-12-24T02:34:50.479Z,68.30
2022-12-24T02:37:20.232Z,68.08
2022-12-24T02:39:54.289Z,67.50
2022-12-24T02:42:26.578Z,67.39
2022-12-24T02:45:04.804Z,67.50
2022-12-24T02:47:34.189Z,67.93
2022-12-24T02:50:02.453Z,66.89
2022-12-24T02:52:34.724Z,67.87
2022-12-24T02:55:19.649Z,66.24
2022-12-24T02:58:07.442Z,66.79
2022-12-24T03:00:43.781Z,66.28
2022-12-24T03:03:36.826Z,67.19
2022-12-24T03:06:23.917Z,66.96
2022-12-24T03:09:28.134Z,66.22
2022-12-24T03:12:04.710Z,66.58
2022-12-24T03:14:34.760Z,66.13
2022-12-24T03:17:03.189Z,65.96
2022-12-24T03:19:31.474Z,66.05
2022-12-24T03:21:59.430Z,66.15
2022-12-24T03:24:26.056Z,65.74
2022-12-24T03:26:52.933Z,65.45
2022-12-24T03:29:20.482Z,66.33
2022-12-24T03:31:52.907Z,66.23
2022-12-24T03:34:19.966Z,65.01
2022-12-24T03:36:47.997Z,64.82
2022-12-24T03:39:14.456Z,65.27
2022-12-24T03:41:40.878Z,64.45
2022-12-24T03:44:07.337Z,64.59
2022-12-24T03:46:33.917Z,65.24
2022-12-24T03:49:00.472Z,65.12
2022-12-24T03:51:27.503Z,65.30
2022-12-24T03:53:55.720Z,65.85
2022-12-24T03:56:22.760Z,66.92
2022-12-24T03:58:49.557Z,67.69
2022-12-24T04:01:17.197Z,67.98
2022-12-24T04:03:44.636Z,67.77
2022-12-24T04:06:14.726Z,68.05
2022-12-24T04:08:41.753Z,68.18
2022-12-24T04:11:10.642Z,67.79
2022-12-24T04:13:37.531Z,67.70
2022-12-24T04:16:08.434Z,67.36
2022-12-24T04:18:35.380Z,66.92
2022-12-24T04:21:02.014Z,66.68
2022-12-24T04:23:31.518Z,67.29
2022-12-24T04:26:02.239Z,67.88
2022-12-24T04:28:30.014Z,68.49
2022-12-24T04:31:01.280Z,66.62
2022-12-24T04:33:27.963Z,67.49
2022-12-24T04:35:54.788Z,66.39
2022-12-24T04:38:21.221Z,66.45
2022-12-24T04:40:48.004Z,65.90
2022-12-24T04:43:15.413Z,66.67
2022-12-24T04:45:41.824Z,66.50
2022-12-24T04:48:08.384Z,67.44
2022-12-24T04:50:34.985Z,66.25
2022-12-24T04:53:01.524Z,67.06
2022-12-24T04:55:27.967Z,66.48
2022-12-24T04:57:54.507Z,68.10
2022-12-24T05:00:21.068Z,66.97
2022-12-24T05:02:47.977Z,67.07
2022-12-24T05:05:14.753Z,67.80
2022-12-24T05:07:41.207Z,68.26
2022-12-24T05:10:08.514Z,68.36
2022-12-24T05:12:34.961Z,66.93
2022-12-24T05:15:01.583Z,67.12
2022-12-24T05:17:28.167Z,67.38
2022-12-24T05:19:54.667Z,68.69
2022-12-24T05:22:39.490Z,69.17
2022-12-24T05:25:24.760Z,70.99
2022-12-24T05:27:51.665Z,72.09
2022-12-24T05:30:18.284Z,72.24
2022-12-24T05:32:44.972Z,71.98
2022-12-24T05:35:11.508Z,71.64
2022-12-24T05:37:38.072Z,71.24
2022-12-24T05:40:04.986Z,71.23
2022-12-24T05:42:31.389Z,72.08
2022-12-24T05:44:57.830Z,73.04
2022-12-24T05:47:24.418Z,72.34
2022-12-24T05:49:51.016Z,72.30
2022-12-24T05:52:17.459Z,71.88
2022-12-24T05:54:43.950Z,71.70
2022-12-24T05:57:10.663Z,72.12
2022-12-24T05:59:37.274Z,71.35
2022-12-24T06:02:03.931Z,71.92
2022-12-24T06:04:30.672Z,73.08
2022-12-24T06:06:57.397Z,72.55
2022-12-24T06:09:23.999Z,72.98
2022-12-24T06:11:50.485Z,72.76
2022-12-24T06:14:17.043Z,72.49
2022-12-24T06:16:43.441Z,73.57
2022-12-24T06:19:09.953Z,72.45
2022-12-24T06:21:36.394Z,71.40
2022-12-24T06:24:03.215Z,71.56
2022-12-24T06:26:29.662Z,70.48
2022-12-24T06:28:56.085Z,70.41
2022-12-24T06:31:23.657Z,70.18
2022-12-24T06:33:51.542Z,70.79
2022-12-24T06:36:25.047Z,69.32
2022-12-24T06:38:53.421Z,69.92
2022-12-24T06:41:21.085Z,70.69
2022-12-24T06:43:50.011Z,68.79
2022-12-24T06:46:17.519Z,68.39
2022-12-24T06:48:45.394Z,67.38
2022-12-24T06:51:13.822Z,67.64
2022-12-24T06:53:40.556Z,67.50
2022-12-24T06:56:12.196Z,67.77
2022-12-24T06:58:40.770Z,68.15
2022-12-24T07:01:13.525Z,68.41
2022-12-24T07:03:40.598Z,68.46
2022-12-24T07:06:08.177Z,68.25
2022-12-24T07:08:36.404Z,68.39
2022-12-24T07:11:03.676Z,67.71
2022-12-24T07:13:31.707Z,67.33
2022-12-24T07:15:58.878Z,66.50
2022-12-24T07:18:25.781Z,66.50
2022-12-24T07:20:52.622Z,66.72
2022-12-24T07:23:19.149Z,66.51
2022-12-24T07:25:45.713Z,66.18
2022-12-24T07:28:12.702Z,66.15
2022-12-24T07:30:39.291Z,66.52
2022-12-24T07:33:05.881Z,64.96
2022-12-24T07:35:32.482Z,65.55
2022-12-24T07:37:58.885Z,64.53
2022-12-24T07:40:25.615Z,64.58
2022-12-24T07:42:52.204Z,64.02
2022-12-24T07:45:18.752Z,64.73
2022-12-24T07:47:45.308Z,64.75
2022-12-24T07:50:11.982Z,65.16
2022-12-24T07:52:38.511Z,65.35
2022-12-24T07:55:05.381Z,65.04
2022-12-24T07:57:31.922Z,64.92
2022-12-24T07:59:58.464Z,64.68
2022-12-24T08:02:25.234Z,64.78
2022-12-24T08:04:52.031Z,64.10
2022-12-24T08:07:18.576Z,63.96
2022-12-24T08:09:46.302Z,63.37
2022-12-24T08:12:12.815Z,62.44
2022-12-24T08:14:39.483Z,62.36
2022-12-24T08:17:05.974Z,61.77
2022-12-24T08:19:32.575Z,62.05
2022-12-24T08:21:59.186Z,61.03
2022-12-24T08:24:25.715Z,60.64
2022-12-24T08:26:52.189Z,60.81
2022-12-24T08:29:18.760Z,60.86
2022-12-24T08:31:45.360Z,60.89
2022-12-24T08:34:12.081Z,62.41
2022-12-24T08:36:38.676Z,61.73
2022-12-24T08:39:08.602Z,62.67
2022-12-24T08:41:35.622Z,63.30
2022-12-24T08:44:02.140Z,63.34
2022-12-24T08:46:28.717Z,63.42
2022-12-24T08:48:55.252Z,63.48
2022-12-24T08:51:21.820Z,63.71
2022-12-24T08:53:48.358Z,63.73
2022-12-24T08:56:14.939Z,63.97
2022-12-24T08:58:41.573Z,63.90
2022-12-24T09:01:17.258Z,63.29
2022-12-24T09:03:44.353Z,63.14
2022-12-24T09:06:11.890Z,62.16
2022-12-24T09:08:38.674Z,60.90
2022-12-24T09:11:11.923Z,61.70
2022-12-24T09:13:39.106Z,59.85
2022-12-24T09:16:06.544Z,57.45
2022-12-24T09:18:33.381Z,57.60
2022-12-24T09:21:11.374Z,59.14
2022-12-24T09:23:41.891Z,60.13
2022-12-24T09:26:10.278Z,60.23
2022-12-24T09:28:36.787Z,59.83
2022-12-24T09:31:05.143Z,57.46
2022-12-24T09:33:34.431Z,60.18
2022-12-24T09:36:01.819Z,60.03
2022-12-24T09:38:28.917Z,58.79
2022-12-24T09:40:56.268Z,58.56
2022-12-24T09:43:26.489Z,57.74
2022-12-24T09:46:11.552Z,58.64
2022-12-24T09:48:43.734Z,58.77
2022-12-24T09:51:16.183Z,57.52
2022-12-24T09:53:57.360Z,57.56
2022-12-24T09:56:27.493Z,56.43
2022-12-24T09:59:01.952Z,57.00
2022-12-24T10:01:34.053Z,56.82
2022-12-24T10:04:04.136Z,56.16
2022-12-24T10:06:44.668Z,55.64
2022-12-24T10:09:37.165Z,55.19
2022-12-24T10:12:45.921Z,57.12
2022-12-24T10:15:31.425Z,55.90
2022-12-24T10:18:18.198Z,53.50
2022-12-24T10:20:49.610Z,53.18
2022-12-24T10:23:22.070Z,52.38
2022-12-24T10:26:05.900Z,53.58
2022-12-24T10:28:44.007Z,52.86
2022-12-24T10:31:10.894Z,51.76
2022-12-24T10:33:49.970Z,52.15
2022-12-24T10:36:19.255Z,54.53
2022-12-24T10:38:46.690Z,55.62
2022-12-24T10:41:15.152Z,57.39
2022-12-24T10:43:45.084Z,55.24
2022-12-24T10:46:32.969Z,55.79
2022-12-24T10:49:01.969Z,54.11
2022-12-24T10:51:58.722Z,53.76
2022-12-24T10:54:28.128Z,54.25
2022-12-24T10:57:02.413Z,54.18
2022-12-24T10:59:49.516Z,56.34
2022-12-24T11:02:29.881Z,55.16
2022-12-24T11:04:59.423Z,54.73
2022-12-24T11:07:26.947Z,54.71
2022-12-24T11:09:58.389Z,57.01
2022-12-24T11:12:28.298Z,57.63
2022-12-24T11:15:17.653Z,56.51
2022-12-24T11:17:59.207Z,56.24
2022-12-24T11:20:30.321Z,56.96
2022-12-24T11:22:57.880Z,56.43
2022-12-24T11:25:32.745Z,56.01
2022-12-24T11:28:30.162Z,57.53
2022-12-24T11:31:06.055Z,59.56
2022-12-24T11:33:45.902Z,57.89
2022-12-24T11:36:13.559Z,57.54
2022-12-24T11:38:40.698Z,54.93
2022-12-24T11:41:11.561Z,55.09
2022-12-24T11:43:45.044Z,54.94
2022-12-24T11:46:15.152Z,57.46
2022-12-24T11:48:43.883Z,57.47
2022-12-24T11:51:30.677Z,56.93
2022-12-24T11:54:06.102Z,58.63
2022-12-24T11:56:41.185Z,58.51
2022-12-24T11:59:18.102Z,58.67
2022-12-24T12:01:56.817Z,56.79
2022-12-24T12:04:30.472Z,58.90
2022-12-24T12:07:00.647Z,59.05
2022-12-24T12:09:32.501Z,57.83
2022-12-24T12:12:20.467Z,54.76
2022-12-24T12:14:57.680Z,58.61
2022-12-24T12:17:33.825Z,57.32
2022-12-24T12:20:11.247Z,55.76
2022-12-24T12:23:05.721Z,56.90
2022-12-24T12:25:37.316Z,57.63
2022-12-24T12:28:11.819Z,57.92
2022-12-24T12:30:41.083Z,59.07
2022-12-24T12:33:20.055Z,58.12
2022-12-24T12:35:48.905Z,59.65
2022-12-24T12:38:22.884Z,58.12
2022-12-24T12:41:04.637Z,58.54
2022-12-24T12:44:02.953Z,57.85
2022-12-24T12:46:58.820Z,57.90
2022-12-24T12:50:08.424Z,58.54
2022-12-24T12:53:12.360Z,57.57
2022-12-24T12:55:53.803Z,57.40
2022-12-24T12:58:26.957Z,60.64
2022-12-24T13:01:03.521Z,59.48
2022-12-24T13:04:07.324Z,60.82
2022-12-24T13:06:58.151Z,59.41
2022-12-24T13:09:43.382Z,59.63
2022-12-24T13:12:31.243Z,58.93
2022-12-24T13:15:19.581Z,58.47
2022-12-24T13:18:18.144Z,59.20
2022-12-24T13:20:50.390Z,58.83
2022-12-24T13:23:22.759Z,60.83
2022-12-24T13:25:55.032Z,60.98
2022-12-24T13:28:24.744Z,60.44
2022-12-24T13:31:01.319Z,61.28
2022-12-24T13:33:34.050Z,61.44
2022-12-24T13:36:07.957Z,60.88
2022-12-24T13:38:46.350Z,60.24
2022-12-24T13:41:41.179Z,59.09
2022-12-24T13:44:14.126Z,59.07
2022-12-24T13:46:58.253Z,59.50
2022-12-24T13:49:54.827Z,58.70
2022-12-24T13:52:24.968Z,58.17
2022-12-24T13:54:54.167Z,58.56
2022-12-24T13:57:26.291Z,56.65
2022-12-24T14:00:21.033Z,57.17
2022-12-24T14:03:02.879Z,55.75
2022-12-24T14:05:47.163Z,55.76
2022-12-24T14:08:22.795Z,56.06
2022-12-24T14:11:07.773Z,55.29
2022-12-24T14:13:40.400Z,54.84
2022-12-24T14:16:16.393Z,54.73
2022-12-24T14:18:57.922Z,54.50
2022-12-24T14:21:51.846Z,54.06
2022-12-24T14:24:25.712Z,54.54
2022-12-24T14:26:57.137Z,54.69
2022-12-24T14:29:33.906Z,55.83
2022-12-24T14:32:04.678Z,56.92
2022-12-24T14:34:31.785Z,56.73
2022-12-24T14:37:01.592Z,57.20
2022-12-24T14:39:34.225Z,57.15
2022-12-24T14:42:29.429Z,59.09
2022-12-24T14:45:34.019Z,57.51
2022-12-24T14:48:28.515Z,56.97
2022-12-24T14:51:18.222Z,57.29
2022-12-24T14:54:14.855Z,57.12
2022-12-24T14:56:41.435Z,57.48
2022-12-24T14:59:19.329Z,58.00
2022-12-24T15:01:47.017Z,57.96
2022-12-24T15:04:17.621Z,58.49
2022-12-24T15:06:56.806Z,58.31
2022-12-24T15:09:31.855Z,58.59
2022-12-24T15:12:03.600Z,58.87
2022-12-24T15:14:39.073Z,57.98
2022-12-24T15:17:07.542Z,58.73
2022-12-24T15:19:38.060Z,59.08
2022-12-24T15:22:09.614Z,59.21
2022-12-24T15:24:44.563Z,58.85
2022-12-24T15:27:20.623Z,59.49
2022-12-24T15:29:50.299Z,59.42
2022-12-24T15:32:19.096Z,59.15
2022-12-24T15:34:48.578Z,59.42
2022-12-24T15:37:20.692Z,58.81
2022-12-24T15:39:56.710Z,59.20
2022-12-24T15:42:25.089Z,60.27
2022-12-24T15:45:27.651Z,59.85
2022-12-24T15:48:10.855Z,61.59
2022-12-24T15:50:43.451Z,62.21
2022-12-24T15:53:22.355Z,62.40
2022-12-24T15:56:09.216Z,63.53
2022-12-24T15:58:38.912Z,63.63
2022-12-24T16:01:15.291Z,63.95
2022-12-24T16:04:02.641Z,64.67
2022-12-24T16:07:02.056Z,65.16
2022-12-24T16:09:43.668Z,66.45
2022-12-24T16:12:20.831Z,67.74
2022-12-24T16:14:51.612Z,67.71
2022-12-24T16:17:23.719Z,67.76
2022-12-24T16:19:53.771Z,67.34
2022-12-24T16:22:31.932Z,67.61
2022-12-24T16:25:22.905Z,66.98
2022-12-24T16:27:50.735Z,66.83
2022-12-24T16:30:18.185Z,65.94
2022-12-24T16:32:46.268Z,65.13
2022-12-24T16:35:33.601Z,65.96
2022-12-24T16:38:00.117Z,65.46
2022-12-24T16:40:27.983Z,65.45
2022-12-24T16:43:15.351Z,64.43
2022-12-24T16:45:42.937Z,63.38
2022-12-24T16:48:17.006Z,62.94
2022-12-24T16:50:43.541Z,62.51
2022-12-24T16:53:17.678Z,62.28
2022-12-24T16:55:46.064Z,63.92
2022-12-24T16:58:14.298Z,63.80
2022-12-24T17:00:41.899Z,63.26
2022-12-24T17:03:09.169Z,62.60
2022-12-24T17:05:40.564Z,61.86
2022-12-24T17:08:08.164Z,61.82
2022-12-24T17:10:34.958Z,62.92
2022-12-24T17:13:01.748Z,61.98
2022-12-24T17:15:28.315Z,63.37
2022-12-24T17:17:54.865Z,62.79
2022-12-24T17:20:24.312Z,62.91
2022-12-24T17:22:51.580Z,62.51
2022-12-24T17:25:18.365Z,62.32
2022-12-24T17:27:45.025Z,62.43
2022-12-24T17:30:12.216Z,62.03
2022-12-24T17:32:39.702Z,62.47
2022-12-24T17:35:07.652Z,62.08
2022-12-24T17:37:34.615Z,62.46
2022-12-24T17:40:01.446Z,62.69
2022-12-24T17:42:27.950Z,63.85
2022-12-24T17:44:54.468Z,63.09
2022-12-24T17:47:21.001Z,63.56
2022-12-24T17:49:47.508Z,63.32
2022-12-24T17:52:13.948Z,63.09
2022-12-24T17:54:40.406Z,64.37
2022-12-24T17:57:06.845Z,63.68
2022-12-24T17:59:33.336Z,63.42
2022-12-24T18:01:59.882Z,62.61
2022-12-24T18:04:26.795Z,62.78
2022-12-24T18:06:59.625Z,62.78
2022-12-24T18:09:28.825Z,62.98
2022-12-24T18:11:55.393Z,63.00
2022-12-24T18:14:21.818Z,62.92
2022-12-24T18:16:49.442Z,63.20
2022-12-24T18:19:16.167Z,63.36
2022-12-24T18:21:42.646Z,63.63
2022-12-24T18:24:10.841Z,63.71
2022-12-24T18:26:37.603Z,63.44
2022-12-24T18:29:04.743Z,63.41
2022-12-24T18:31:33.922Z,64.05
2022-12-24T18:34:02.137Z,64.09
2022-12-24T18:36:29.096Z,63.69
2022-12-24T18:38:55.893Z,64.17
2022-12-24T18:41:25.757Z,64.08
2022-12-24T18:43:53.487Z,64.33
2022-12-24T18:46:23.749Z,64.46
2022-12-24T18:48:51.474Z,65.01
2022-12-24T18:51:22.041Z,65.79
2022-12-24T18:53:49.330Z,65.85
2022-12-24T18:56:18.903Z,65.91
2022-12-24T18:58:45.567Z,65.41
2022-12-24T19:01:15.363Z,65.54
2022-12-24T19:03:42.555Z,65.23
2022-12-24T19:06:09.358Z,65.47
2022-12-24T19:11:23.223Z,64.33
2022-12-24T19:13:50.853Z,64.03
2022-12-24T19:16:18.175Z,64.07
2022-12-24T19:18:44.944Z,64.19
2022-12-24T19:21:13.570Z,63.88
2022-12-24T19:23:40.102Z,63.94
2022-12-24T19:26:06.570Z,63.19
2022-12-24T19:28:33.214Z,63.47
2022-12-24T19:31:04.511Z,63.16
2022-12-24T19:33:31.009Z,63.61
2022-12-24T19:35:57.567Z,62.99
2022-12-24T19:38:24.072Z,62.88
2022-12-24T19:40:50.581Z,63.08
2022-12-24T19:43:17.002Z,63.25
2022-12-24T19:45:43.623Z,63.51
2022-12-24T19:48:10.483Z,63.40
2022-12-24T19:50:36.896Z,63.05
2022-12-24T19:53:03.551Z,63.25
2022-12-24T19:55:30.037Z,62.77
2022-12-24T19:57:56.573Z,62.58
2022-12-24T20:00:23.174Z,63.19
2022-12-24T20:02:49.864Z,63.48
2022-12-24T20:05:16.551Z,63.97
2022-12-24T20:07:42.999Z,64.50
2022-12-24T20:10:09.805Z,63.44
2022-12-24T20:12:36.204Z,63.23
2022-12-24T20:15:02.753Z,63.89
2022-12-24T20:17:29.192Z,63.09
2022-12-24T20:19:55.878Z,64.38
2022-12-24T20:22:22.406Z,64.78
2022-12-24T20:24:48.869Z,64.81
2022-12-24T20:27:15.544Z,66.10
2022-12-24T20:29:42.054Z,65.65
2022-12-24T20:32:08.485Z,67.08
2022-12-24T20:34:35.128Z,68.32
2022-12-24T20:37:01.629Z,68.45
2022-12-24T20:39:28.289Z,68.91
2022-12-24T20:41:54.767Z,69.49
2022-12-24T20:44:21.260Z,69.73
2022-12-24T20:46:47.791Z,70.63
2022-12-24T20:49:14.701Z,71.61
2022-12-24T20:51:41.201Z,71.75
2022-12-24T20:54:07.635Z,71.17
2022-12-24T20:56:34.225Z,72.18
2022-12-24T20:59:01.683Z,72.92
2022-12-24T21:01:29.296Z,71.87
2022-12-24T21:03:57.260Z,72.77
2022-12-24T21:06:25.028Z,72.44
2022-12-24T21:08:53.533Z,72.48
2022-12-24T21:11:39.983Z,72.76
2022-12-24T21:14:07.045Z,72.75
2022-12-24T21:16:35.354Z,73.48
2022-12-24T21:19:02.296Z,73.34
2022-12-24T21:21:28.826Z,73.42
2022-12-24T21:23:55.379Z,72.96
2022-12-24T21:26:21.887Z,72.98
2022-12-24T21:28:49.094Z,73.33
2022-12-24T21:31:16.025Z,73.78
2022-12-24T21:33:42.899Z,73.05
2022-12-24T21:36:12.223Z,73.09
2022-12-24T21:38:38.925Z,73.56
2022-12-24T21:41:08.998Z,73.53
2022-12-24T21:43:36.328Z,73.52
2022-12-24T21:46:11.191Z,72.70
2022-12-24T21:48:57.655Z,72.48
2022-12-24T21:51:26.679Z,72.72
2022-12-24T21:54:12.644Z,72.31
2022-12-24T21:56:58.333Z,73.24
2022-12-24T21:59:26.970Z,72.95
2022-12-24T22:01:54.617Z,72.76
2022-12-24T22:04:21.330Z,72.86
2022-12-24T22:07:06.561Z,73.28
2022-12-24T22:09:51.585Z,73.32
2022-12-24T22:12:18.339Z,73.66
2022-12-24T22:14:44.866Z,73.15
2022-12-24T22:17:11.672Z,74.66
2022-12-24T22:19:38.183Z,75.26
2022-12-24T22:22:04.726Z,75.20
2022-12-24T22:24:31.253Z,75.32
2022-12-24T22:26:58.181Z,76.01
2022-12-24T22:29:25.127Z,75.95
2022-12-24T22:31:51.737Z,76.07
2022-12-24T22:34:18.224Z,76.01
2022-12-24T22:36:44.759Z,75.64
2022-12-24T22:39:11.319Z,75.77
2022-12-24T22:41:37.931Z,74.67
2022-12-24T22:44:04.663Z,74.50
2022-12-24T22:46:31.207Z,74.85
2022-12-24T22:48:57.881Z,74.67
2022-12-24T22:51:24.454Z,75.16
2022-12-24T22:53:51.258Z,75.65
2022-12-24T22:56:23.038Z,74.61
2022-12-24T22:58:54.281Z,74.33
2022-12-24T23:01:38.604Z,75.01
2022-12-24T23:04:07.060Z,75.50
2022-12-24T23:06:35.294Z,75.20
2022-12-24T23:09:02.482Z,75.17
2022-12-24T23:11:28.973Z,75.65
2022-12-24T23:14:14.097Z,75.65
2022-12-24T23:16:40.533Z,76.46
2022-12-24T23:19:07.162Z,76.93
2022-12-24T23:21:34.340Z,76.62
2022-12-24T23:24:01.612Z,75.97
2022-12-24T23:26:28.832Z,75.74
2022-12-24T23:28:56.143Z,75.82
2022-12-24T23:31:24.159Z,75.43
2022-12-24T23:33:51.061Z,75.92
2022-12-24T23:36:18.018Z,76.10
2022-12-24T23:38:44.597Z,76.11
2022-12-24T23:41:11.483Z,76.12
2022-12-24T23:43:38.207Z,74.88
2022-12-24T23:46:05.370Z,74.74
2022-12-24T23:48:32.037Z,76.07
2022-12-24T23:51:06.671Z,75.44
2022-12-24T23:53:33.275Z,75.00
2022-12-24T23:56:02.176Z,74.68
2022-12-24T23:58:28.661Z,74.23
